sensor_id;sensor_type;location;lat;lon;timestamp;P1;durP1;ratioP1;P2;durP2;ratioP2
6288;SDS011;3177;49.880;8.836;2023-03-01T00:00:03;13.57;;;9.37;;
6288;SDS011;3177;49.880;8.836;2023-03-01T00:02:31;13.13;;;8.20;;
6288;SDS011;3177;49.880;8.836;2023-03-01T00:05:00;12.27;;;8.43;;
6288;SDS011;3177;49.880;8.836;2023-03-01T00:07:27;14.80;;;9.00;;
6288;SDS011;3177;49.880;8.836;2023-03-01T00:09:54;12.40;;;8.93;;
6288;SDS011;3177;49.880;8.836;2023-03-01T00:12:21;14.13;;;8.83;;
6288;SDS011;3177;49.880;8.836;2023-03-01T00:14:48;11.67;;;8.83;;
6288;SDS011;3177;49.880;8.836;2023-03-01T00:17:15;12.10;;;8.93;;
6288;SDS011;3177;49.880;8.836;2023-03-01T00:19:43;12.87;;;9.33;;
6288;SDS011;3177;49.880;8.836;2023-03-01T00:22:11;11.60;;;9.07;;
6288;SDS011;3177;49.880;8.836;2023-03-01T00:24:38;13.57;;;9.83;;
6288;SDS011;3177;49.880;8.836;2023-03-01T00:27:05;11.13;;;8.30;;
6288;SDS011;3177;49.880;8.836;2023-03-01T00:29:32;13.07;;;9.13;;
6288;SDS011;3177;49.880;8.836;2023-03-01T00:31:59;12.03;;;8.50;;
6288;SDS011;3177;49.880;8.836;2023-03-01T00:34:26;13.50;;;8.70;;
6288;SDS011;3177;49.880;8.836;2023-03-01T00:36:53;12.90;;;8.87;;
6288;SDS011;3177;49.880;8.836;2023-03-01T00:39:28;12.83;;;9.10;;
6288;SDS011;3177;49.880;8.836;2023-03-01T00:41:55;12.63;;;8.20;;
6288;SDS011;3177;49.880;8.836;2023-03-01T00:44:22;10.13;;;8.80;;
6288;SDS011;3177;49.880;8.836;2023-03-01T00:46:49;13.53;;;8.53;;
6288;SDS011;3177;49.880;8.836;2023-03-01T00:49:16;12.30;;;8.57;;
6288;SDS011;3177;49.880;8.836;2023-03-01T00:51:43;11.43;;;9.00;;
6288;SDS011;3177;49.880;8.836;2023-03-01T00:54:10;12.13;;;9.03;;
6288;SDS011;3177;49.880;8.836;2023-03-01T00:56:38;12.83;;;8.93;;
6288;SDS011;3177;49.880;8.836;2023-03-01T00:59:05;12.37;;;7.80;;
6288;SDS011;3177;49.880;8.836;2023-03-01T01:01:32;8.50;;;7.50;;
6288;SDS011;3177;49.880;8.836;2023-03-01T01:04:00;12.33;;;8.17;;
6288;SDS011;3177;49.880;8.836;2023-03-01T01:06:28;17.23;;;8.87;;
6288;SDS011;3177;49.880;8.836;2023-03-01T01:08:56;12.03;;;8.90;;
6288;SDS011;3177;49.880;8.836;2023-03-01T01:11:24;13.90;;;8.73;;
6288;SDS011;3177;49.880;8.836;2023-03-01T01:13:52;13.13;;;9.13;;
6288;SDS011;3177;49.880;8.836;2023-03-01T01:16:20;13.70;;;9.17;;
6288;SDS011;3177;49.880;8.836;2023-03-01T01:18:47;14.33;;;8.53;;
6288;SDS011;3177;49.880;8.836;2023-03-01T01:21:15;11.37;;;8.63;;
6288;SDS011;3177;49.880;8.836;2023-03-01T01:23:43;12.20;;;9.17;;
6288;SDS011;3177;49.880;8.836;2023-03-01T01:26:11;13.10;;;8.57;;
6288;SDS011;3177;49.880;8.836;2023-03-01T01:28:38;12.77;;;9.30;;
6288;SDS011;3177;49.880;8.836;2023-03-01T01:31:07;11.30;;;8.50;;
6288;SDS011;3177;49.880;8.836;2023-03-01T01:33:34;12.43;;;8.43;;
6288;SDS011;3177;49.880;8.836;2023-03-01T01:36:02;11.37;;;8.00;;
6288;SDS011;3177;49.880;8.836;2023-03-01T01:38:29;12.10;;;8.67;;
6288;SDS011;3177;49.880;8.836;2023-03-01T01:40:57;12.33;;;8.60;;
6288;SDS011;3177;49.880;8.836;2023-03-01T01:43:27;15.10;;;9.27;;
6288;SDS011;3177;49.880;8.836;2023-03-01T01:45:55;12.73;;;8.37;;
6288;SDS011;3177;49.880;8.836;2023-03-01T01:48:28;15.23;;;9.17;;
6288;SDS011;3177;49.880;8.836;2023-03-01T01:51:05;12.47;;;9.40;;
6288;SDS011;3177;49.880;8.836;2023-03-01T01:53:33;14.33;;;9.00;;
6288;SDS011;3177;49.880;8.836;2023-03-01T01:56:01;13.23;;;9.63;;
6288;SDS011;3177;49.880;8.836;2023-03-01T01:58:29;12.40;;;8.83;;
6288;SDS011;3177;49.880;8.836;2023-03-01T02:00:56;13.93;;;10.00;;
6288;SDS011;3177;49.880;8.836;2023-03-01T02:03:27;13.77;;;9.90;;
6288;SDS011;3177;49.880;8.836;2023-03-01T02:05:59;13.00;;;9.10;;
6288;SDS011;3177;49.880;8.836;2023-03-01T02:08:28;12.87;;;10.10;;
6288;SDS011;3177;49.880;8.836;2023-03-01T02:10:56;15.30;;;9.33;;
6288;SDS011;3177;49.880;8.836;2023-03-01T02:13:24;15.00;;;9.10;;
6288;SDS011;3177;49.880;8.836;2023-03-01T02:15:52;12.33;;;8.93;;
6288;SDS011;3177;49.880;8.836;2023-03-01T02:18:20;11.30;;;8.93;;
6288;SDS011;3177;49.880;8.836;2023-03-01T02:20:53;13.10;;;9.43;;
6288;SDS011;3177;49.880;8.836;2023-03-01T02:23:24;11.87;;;8.80;;
6288;SDS011;3177;49.880;8.836;2023-03-01T02:28:54;11.97;;;8.97;;
6288;SDS011;3177;49.880;8.836;2023-03-01T02:31:21;13.23;;;9.03;;
6288;SDS011;3177;49.880;8.836;2023-03-01T02:34:07;13.00;;;9.60;;
6288;SDS011;3177;49.880;8.836;2023-03-01T02:36:35;15.90;;;9.60;;
6288;SDS011;3177;49.880;8.836;2023-03-01T02:39:04;15.90;;;9.93;;
6288;SDS011;3177;49.880;8.836;2023-03-01T02:41:34;15.97;;;10.40;;
6288;SDS011;3177;49.880;8.836;2023-03-01T02:44:03;15.60;;;9.67;;
6288;SDS011;3177;49.880;8.836;2023-03-01T02:46:31;12.10;;;9.20;;
6288;SDS011;3177;49.880;8.836;2023-03-01T02:48:58;14.67;;;9.47;;
6288;SDS011;3177;49.880;8.836;2023-03-01T02:51:27;14.73;;;9.47;;
6288;SDS011;3177;49.880;8.836;2023-03-01T02:53:59;13.63;;;9.50;;
6288;SDS011;3177;49.880;8.836;2023-03-01T02:56:32;13.40;;;9.43;;
6288;SDS011;3177;49.880;8.836;2023-03-01T02:58:59;12.77;;;9.30;;
6288;SDS011;3177;49.880;8.836;2023-03-01T03:01:28;12.33;;;9.17;;
6288;SDS011;3177;49.880;8.836;2023-03-01T03:04:01;13.17;;;9.23;;
6288;SDS011;3177;49.880;8.836;2023-03-01T03:06:28;13.23;;;9.87;;
6288;SDS011;3177;49.880;8.836;2023-03-01T03:08:55;13.03;;;9.40;;
6288;SDS011;3177;49.880;8.836;2023-03-01T03:11:23;15.47;;;9.87;;
6288;SDS011;3177;49.880;8.836;2023-03-01T03:13:50;15.80;;;10.10;;
6288;SDS011;3177;49.880;8.836;2023-03-01T03:16:17;12.20;;;8.73;;
6288;SDS011;3177;49.880;8.836;2023-03-01T03:18:46;14.97;;;8.73;;
6288;SDS011;3177;49.880;8.836;2023-03-01T03:21:13;14.60;;;9.93;;
6288;SDS011;3177;49.880;8.836;2023-03-01T03:23:41;16.03;;;9.50;;
6288;SDS011;3177;49.880;8.836;2023-03-01T03:26:08;12.80;;;9.33;;
6288;SDS011;3177;49.880;8.836;2023-03-01T03:28:38;15.07;;;9.43;;
6288;SDS011;3177;49.880;8.836;2023-03-01T03:31:05;12.73;;;9.13;;
6288;SDS011;3177;49.880;8.836;2023-03-01T03:33:32;13.43;;;9.93;;
6288;SDS011;3177;49.880;8.836;2023-03-01T03:36:01;12.10;;;9.27;;
6288;SDS011;3177;49.880;8.836;2023-03-01T03:38:28;15.10;;;9.47;;
6288;SDS011;3177;49.880;8.836;2023-03-01T03:40:59;15.80;;;9.80;;
6288;SDS011;3177;49.880;8.836;2023-03-01T03:43:27;16.37;;;10.33;;
6288;SDS011;3177;49.880;8.836;2023-03-01T03:45:54;15.17;;;9.53;;
6288;SDS011;3177;49.880;8.836;2023-03-01T03:48:22;16.03;;;10.53;;
6288;SDS011;3177;49.880;8.836;2023-03-01T03:50:51;15.37;;;10.40;;
6288;SDS011;3177;49.880;8.836;2023-03-01T03:53:19;15.13;;;10.57;;
6288;SDS011;3177;49.880;8.836;2023-03-01T03:55:47;15.47;;;10.33;;
6288;SDS011;3177;49.880;8.836;2023-03-01T03:58:16;13.97;;;9.37;;
6288;SDS011;3177;49.880;8.836;2023-03-01T04:00:45;14.07;;;9.93;;
6288;SDS011;3177;49.880;8.836;2023-03-01T04:03:13;12.97;;;9.47;;
6288;SDS011;3177;49.880;8.836;2023-03-01T04:05:41;14.93;;;9.90;;
6288;SDS011;3177;49.880;8.836;2023-03-01T04:08:08;16.03;;;9.40;;
6288;SDS011;3177;49.880;8.836;2023-03-01T04:10:37;14.80;;;9.77;;
6288;SDS011;3177;49.880;8.836;2023-03-01T04:13:05;16.57;;;9.63;;
6288;SDS011;3177;49.880;8.836;2023-03-01T04:15:33;14.53;;;10.13;;
6288;SDS011;3177;49.880;8.836;2023-03-01T04:18:00;15.70;;;10.67;;
6288;SDS011;3177;49.880;8.836;2023-03-01T04:20:29;16.93;;;10.80;;
6288;SDS011;3177;49.880;8.836;2023-03-01T04:22:58;15.10;;;9.93;;
6288;SDS011;3177;49.880;8.836;2023-03-01T04:25:36;14.37;;;11.03;;
6288;SDS011;3177;49.880;8.836;2023-03-01T04:28:03;13.07;;;9.47;;
6288;SDS011;3177;49.880;8.836;2023-03-01T04:30:30;16.70;;;10.27;;
6288;SDS011;3177;49.880;8.836;2023-03-01T04:33:00;16.87;;;9.80;;
6288;SDS011;3177;49.880;8.836;2023-03-01T04:35:27;14.47;;;9.80;;
6288;SDS011;3177;49.880;8.836;2023-03-01T04:37:54;14.90;;;9.60;;
6288;SDS011;3177;49.880;8.836;2023-03-01T04:40:21;15.83;;;10.80;;
6288;SDS011;3177;49.880;8.836;2023-03-01T04:42:50;14.30;;;11.17;;
6288;SDS011;3177;49.880;8.836;2023-03-01T04:45:17;14.17;;;9.70;;
6288;SDS011;3177;49.880;8.836;2023-03-01T04:47:45;15.13;;;10.23;;
6288;SDS011;3177;49.880;8.836;2023-03-01T04:50:13;14.03;;;10.17;;
6288;SDS011;3177;49.880;8.836;2023-03-01T04:52:41;15.70;;;10.37;;
6288;SDS011;3177;49.880;8.836;2023-03-01T04:55:08;15.43;;;11.07;;
6288;SDS011;3177;49.880;8.836;2023-03-01T04:57:36;13.33;;;10.37;;
6288;SDS011;3177;49.880;8.836;2023-03-01T05:00:05;13.57;;;10.27;;
6288;SDS011;3177;49.880;8.836;2023-03-01T05:02:45;15.93;;;10.43;;
6288;SDS011;3177;49.880;8.836;2023-03-01T05:05:13;13.93;;;10.30;;
6288;SDS011;3177;49.880;8.836;2023-03-01T05:07:40;18.27;;;11.00;;
6288;SDS011;3177;49.880;8.836;2023-03-01T05:10:07;15.73;;;10.13;;
6288;SDS011;3177;49.880;8.836;2023-03-01T05:12:35;15.93;;;10.80;;
6288;SDS011;3177;49.880;8.836;2023-03-01T05:15:02;13.80;;;10.70;;
6288;SDS011;3177;49.880;8.836;2023-03-01T05:17:33;14.70;;;10.47;;
6288;SDS011;3177;49.880;8.836;2023-03-01T05:20:00;14.13;;;10.33;;
6288;SDS011;3177;49.880;8.836;2023-03-01T05:22:29;16.67;;;11.30;;
6288;SDS011;3177;49.880;8.836;2023-03-01T05:24:56;15.60;;;10.83;;
6288;SDS011;3177;49.880;8.836;2023-03-01T05:27:23;16.67;;;10.67;;
6288;SDS011;3177;49.880;8.836;2023-03-01T05:29:50;15.13;;;10.50;;
6288;SDS011;3177;49.880;8.836;2023-03-01T05:32:17;18.27;;;10.77;;
6288;SDS011;3177;49.880;8.836;2023-03-01T05:34:45;18.07;;;10.33;;
6288;SDS011;3177;49.880;8.836;2023-03-01T05:37:12;14.77;;;10.37;;
6288;SDS011;3177;49.880;8.836;2023-03-01T05:39:39;18.20;;;10.47;;
6288;SDS011;3177;49.880;8.836;2023-03-01T05:42:09;21.37;;;10.57;;
6288;SDS011;3177;49.880;8.836;2023-03-01T05:44:37;17.03;;;10.47;;
6288;SDS011;3177;49.880;8.836;2023-03-01T05:47:04;17.53;;;11.07;;
6288;SDS011;3177;49.880;8.836;2023-03-01T05:49:31;15.57;;;10.10;;
6288;SDS011;3177;49.880;8.836;2023-03-01T05:52:00;17.10;;;11.10;;
6288;SDS011;3177;49.880;8.836;2023-03-01T05:54:27;14.10;;;10.33;;
6288;SDS011;3177;49.880;8.836;2023-03-01T05:56:54;17.47;;;11.40;;
6288;SDS011;3177;49.880;8.836;2023-03-01T05:59:21;15.90;;;10.80;;
6288;SDS011;3177;49.880;8.836;2023-03-01T06:01:49;17.30;;;11.90;;
6288;SDS011;3177;49.880;8.836;2023-03-01T06:04:16;16.03;;;10.97;;
6288;SDS011;3177;49.880;8.836;2023-03-01T06:06:43;18.77;;;11.50;;
6288;SDS011;3177;49.880;8.836;2023-03-01T06:09:11;20.47;;;11.83;;
6288;SDS011;3177;49.880;8.836;2023-03-01T06:11:39;18.70;;;11.33;;
6288;SDS011;3177;49.880;8.836;2023-03-01T06:14:07;21.23;;;10.83;;
6288;SDS011;3177;49.880;8.836;2023-03-01T06:16:35;16.63;;;11.30;;
6288;SDS011;3177;49.880;8.836;2023-03-01T06:19:02;18.73;;;11.80;;
6288;SDS011;3177;49.880;8.836;2023-03-01T06:21:29;17.77;;;12.23;;
6288;SDS011;3177;49.880;8.836;2023-03-01T06:24:02;16.40;;;10.57;;
6288;SDS011;3177;49.880;8.836;2023-03-01T06:26:45;20.00;;;11.57;;
6288;SDS011;3177;49.880;8.836;2023-03-01T06:29:14;16.90;;;10.83;;
6288;SDS011;3177;49.880;8.836;2023-03-01T06:31:41;17.13;;;11.33;;
6288;SDS011;3177;49.880;8.836;2023-03-01T06:34:09;19.57;;;11.30;;
6288;SDS011;3177;49.880;8.836;2023-03-01T06:36:38;17.03;;;11.40;;
6288;SDS011;3177;49.880;8.836;2023-03-01T06:39:05;19.30;;;11.93;;
6288;SDS011;3177;49.880;8.836;2023-03-01T06:41:32;17.47;;;11.13;;
6288;SDS011;3177;49.880;8.836;2023-03-01T06:44:05;17.70;;;11.30;;
6288;SDS011;3177;49.880;8.836;2023-03-01T06:46:32;17.43;;;11.77;;
6288;SDS011;3177;49.880;8.836;2023-03-01T06:49:01;16.93;;;11.17;;
6288;SDS011;3177;49.880;8.836;2023-03-01T06:51:29;17.57;;;12.30;;
6288;SDS011;3177;49.880;8.836;2023-03-01T06:53:57;18.87;;;12.13;;
6288;SDS011;3177;49.880;8.836;2023-03-01T06:56:24;16.13;;;10.73;;
6288;SDS011;3177;49.880;8.836;2023-03-01T06:58:51;18.03;;;12.13;;
6288;SDS011;3177;49.880;8.836;2023-03-01T07:01:20;18.73;;;12.77;;
6288;SDS011;3177;49.880;8.836;2023-03-01T07:03:47;19.73;;;11.63;;
6288;SDS011;3177;49.880;8.836;2023-03-01T07:06:14;20.67;;;11.63;;
6288;SDS011;3177;49.880;8.836;2023-03-01T07:08:42;19.13;;;13.17;;
6288;SDS011;3177;49.880;8.836;2023-03-01T07:11:09;16.03;;;12.07;;
6288;SDS011;3177;49.880;8.836;2023-03-01T07:13:36;21.50;;;12.43;;
6288;SDS011;3177;49.880;8.836;2023-03-01T07:18:35;16.47;;;11.00;;
6288;SDS011;3177;49.880;8.836;2023-03-01T07:21:06;17.70;;;12.63;;
6288;SDS011;3177;49.880;8.836;2023-03-01T07:23:33;24.00;;;13.43;;
6288;SDS011;3177;49.880;8.836;2023-03-01T07:26:01;17.97;;;13.13;;
6288;SDS011;3177;49.880;8.836;2023-03-01T07:28:28;19.93;;;12.30;;
6288;SDS011;3177;49.880;8.836;2023-03-01T07:31:00;19.30;;;12.40;;
6288;SDS011;3177;49.880;8.836;2023-03-01T07:33:27;19.33;;;11.80;;
6288;SDS011;3177;49.880;8.836;2023-03-01T07:36:02;17.20;;;11.23;;
6288;SDS011;3177;49.880;8.836;2023-03-01T07:38:30;18.43;;;11.30;;
6288;SDS011;3177;49.880;8.836;2023-03-01T07:40:57;16.33;;;11.10;;
6288;SDS011;3177;49.880;8.836;2023-03-01T07:43:25;23.23;;;11.20;;
6288;SDS011;3177;49.880;8.836;2023-03-01T07:45:52;19.73;;;11.70;;
6288;SDS011;3177;49.880;8.836;2023-03-01T07:48:19;18.00;;;12.20;;
6288;SDS011;3177;49.880;8.836;2023-03-01T07:50:46;13.47;;;9.77;;
6288;SDS011;3177;49.880;8.836;2023-03-01T07:53:14;13.60;;;9.67;;
6288;SDS011;3177;49.880;8.836;2023-03-01T07:55:41;15.80;;;10.00;;
6288;SDS011;3177;49.880;8.836;2023-03-01T07:58:08;15.80;;;11.17;;
6288;SDS011;3177;49.880;8.836;2023-03-01T08:00:35;14.67;;;11.17;;
6288;SDS011;3177;49.880;8.836;2023-03-01T08:03:02;15.43;;;10.90;;
6288;SDS011;3177;49.880;8.836;2023-03-01T08:05:35;16.13;;;10.57;;
6288;SDS011;3177;49.880;8.836;2023-03-01T08:08:03;18.37;;;11.47;;
6288;SDS011;3177;49.880;8.836;2023-03-01T08:10:32;21.50;;;11.13;;
6288;SDS011;3177;49.880;8.836;2023-03-01T08:12:59;18.10;;;11.60;;
6288;SDS011;3177;49.880;8.836;2023-03-01T08:15:26;14.83;;;10.43;;
6288;SDS011;3177;49.880;8.836;2023-03-01T08:17:54;15.30;;;9.90;;
6288;SDS011;3177;49.880;8.836;2023-03-01T08:20:21;14.57;;;9.47;;
6288;SDS011;3177;49.880;8.836;2023-03-01T08:22:48;16.00;;;10.53;;
6288;SDS011;3177;49.880;8.836;2023-03-01T08:25:15;10.43;;;8.03;;
6288;SDS011;3177;49.880;8.836;2023-03-01T08:27:43;19.53;;;11.17;;
6288;SDS011;3177;49.880;8.836;2023-03-01T08:30:11;18.33;;;9.87;;
6288;SDS011;3177;49.880;8.836;2023-03-01T08:32:38;16.67;;;9.93;;
6288;SDS011;3177;49.880;8.836;2023-03-01T08:35:05;15.63;;;10.17;;
6288;SDS011;3177;49.880;8.836;2023-03-01T08:37:32;15.33;;;10.10;;
6288;SDS011;3177;49.880;8.836;2023-03-01T08:40:00;18.57;;;10.83;;
6288;SDS011;3177;49.880;8.836;2023-03-01T08:42:28;14.97;;;10.00;;
6288;SDS011;3177;49.880;8.836;2023-03-01T08:44:57;17.63;;;11.07;;
6288;SDS011;3177;49.880;8.836;2023-03-01T08:47:24;11.93;;;8.63;;
6288;SDS011;3177;49.880;8.836;2023-03-01T08:49:51;14.87;;;11.23;;
6288;SDS011;3177;49.880;8.836;2023-03-01T08:52:18;16.50;;;10.60;;
6288;SDS011;3177;49.880;8.836;2023-03-01T08:54:46;17.07;;;11.07;;
6288;SDS011;3177;49.880;8.836;2023-03-01T08:57:14;15.60;;;10.80;;
6288;SDS011;3177;49.880;8.836;2023-03-01T08:59:41;15.07;;;11.73;;
6288;SDS011;3177;49.880;8.836;2023-03-01T09:02:11;14.10;;;9.37;;
6288;SDS011;3177;49.880;8.836;2023-03-01T09:04:39;16.67;;;10.90;;
6288;SDS011;3177;49.880;8.836;2023-03-01T09:07:06;10.03;;;8.77;;
6288;SDS011;3177;49.880;8.836;2023-03-01T09:09:34;12.73;;;9.80;;
6288;SDS011;3177;49.880;8.836;2023-03-01T09:12:01;18.53;;;11.87;;
6288;SDS011;3177;49.880;8.836;2023-03-01T09:14:29;13.63;;;10.50;;
6288;SDS011;3177;49.880;8.836;2023-03-01T09:16:56;17.53;;;11.00;;
6288;SDS011;3177;49.880;8.836;2023-03-01T09:19:25;18.00;;;11.03;;
6288;SDS011;3177;49.880;8.836;2023-03-01T09:21:52;23.00;;;12.87;;
6288;SDS011;3177;49.880;8.836;2023-03-01T09:24:21;16.00;;;10.63;;
6288;SDS011;3177;49.880;8.836;2023-03-01T09:26:48;18.07;;;11.60;;
6288;SDS011;3177;49.880;8.836;2023-03-01T09:29:16;17.40;;;11.07;;
6288;SDS011;3177;49.880;8.836;2023-03-01T09:31:44;17.80;;;11.50;;
6288;SDS011;3177;49.880;8.836;2023-03-01T09:34:11;16.70;;;11.60;;
6288;SDS011;3177;49.880;8.836;2023-03-01T09:36:41;19.93;;;12.00;;
6288;SDS011;3177;49.880;8.836;2023-03-01T09:39:08;19.00;;;12.27;;
6288;SDS011;3177;49.880;8.836;2023-03-01T09:41:43;15.33;;;11.40;;
6288;SDS011;3177;49.880;8.836;2023-03-01T09:44:13;16.30;;;11.60;;
6288;SDS011;3177;49.880;8.836;2023-03-01T09:46:43;13.70;;;10.03;;
6288;SDS011;3177;49.880;8.836;2023-03-01T09:49:12;14.57;;;9.70;;
6288;SDS011;3177;49.880;8.836;2023-03-01T09:51:43;14.07;;;10.37;;
6288;SDS011;3177;49.880;8.836;2023-03-01T09:54:15;18.60;;;12.03;;
6288;SDS011;3177;49.880;8.836;2023-03-01T09:56:44;19.37;;;11.73;;
6288;SDS011;3177;49.880;8.836;2023-03-01T09:59:16;16.43;;;11.60;;
6288;SDS011;3177;49.880;8.836;2023-03-01T10:01:46;16.13;;;11.03;;
6288;SDS011;3177;49.880;8.836;2023-03-01T10:04:23;18.47;;;10.13;;
6288;SDS011;3177;49.880;8.836;2023-03-01T10:06:57;17.47;;;9.87;;
6288;SDS011;3177;49.880;8.836;2023-03-01T10:09:25;15.80;;;9.90;;
6288;SDS011;3177;49.880;8.836;2023-03-01T10:11:52;18.67;;;12.00;;
6288;SDS011;3177;49.880;8.836;2023-03-01T10:14:24;16.67;;;11.80;;
6288;SDS011;3177;49.880;8.836;2023-03-01T10:16:57;16.67;;;11.23;;
6288;SDS011;3177;49.880;8.836;2023-03-01T10:19:29;17.53;;;11.47;;
6288;SDS011;3177;49.880;8.836;2023-03-01T10:22:00;14.10;;;10.23;;
6288;SDS011;3177;49.880;8.836;2023-03-01T10:24:29;17.17;;;12.10;;
6288;SDS011;3177;49.880;8.836;2023-03-01T10:27:00;15.77;;;10.37;;
6288;SDS011;3177;49.880;8.836;2023-03-01T10:29:29;16.00;;;10.97;;
6288;SDS011;3177;49.880;8.836;2023-03-01T10:31:57;13.83;;;10.80;;
6288;SDS011;3177;49.880;8.836;2023-03-01T10:34:27;14.27;;;10.37;;
6288;SDS011;3177;49.880;8.836;2023-03-01T10:36:55;14.73;;;10.93;;
6288;SDS011;3177;49.880;8.836;2023-03-01T10:39:25;16.63;;;10.80;;
6288;SDS011;3177;49.880;8.836;2023-03-01T10:42:00;15.63;;;9.93;;
6288;SDS011;3177;49.880;8.836;2023-03-01T10:44:38;13.70;;;9.50;;
6288;SDS011;3177;49.880;8.836;2023-03-01T10:47:09;10.77;;;7.53;;
6288;SDS011;3177;49.880;8.836;2023-03-01T10:49:38;14.67;;;10.90;;
6288;SDS011;3177;49.880;8.836;2023-03-01T10:52:11;14.53;;;10.57;;
6288;SDS011;3177;49.880;8.836;2023-03-01T10:54:44;13.90;;;9.63;;
6288;SDS011;3177;49.880;8.836;2023-03-01T10:57:24;14.43;;;9.90;;
6288;SDS011;3177;49.880;8.836;2023-03-01T11:00:00;15.70;;;9.87;;
6288;SDS011;3177;49.880;8.836;2023-03-01T11:02:30;14.33;;;10.27;;
6288;SDS011;3177;49.880;8.836;2023-03-01T11:05:00;14.10;;;9.97;;
6288;SDS011;3177;49.880;8.836;2023-03-01T11:07:27;13.03;;;9.23;;
6288;SDS011;3177;49.880;8.836;2023-03-01T11:09:56;13.43;;;9.97;;
6288;SDS011;3177;49.880;8.836;2023-03-01T11:12:23;14.10;;;9.53;;
6288;SDS011;3177;49.880;8.836;2023-03-01T11:14:52;14.83;;;9.67;;
6288;SDS011;3177;49.880;8.836;2023-03-01T11:17:21;12.47;;;9.80;;
6288;SDS011;3177;49.880;8.836;2023-03-01T11:20:02;12.93;;;8.93;;
6288;SDS011;3177;49.880;8.836;2023-03-01T11:22:31;13.13;;;9.40;;
6288;SDS011;3177;49.880;8.836;2023-03-01T11:25:01;14.93;;;10.50;;
6288;SDS011;3177;49.880;8.836;2023-03-01T11:27:31;13.30;;;9.37;;
6288;SDS011;3177;49.880;8.836;2023-03-01T11:29:59;23.40;;;15.30;;
6288;SDS011;3177;49.880;8.836;2023-03-01T11:32:29;17.23;;;9.57;;
6288;SDS011;3177;49.880;8.836;2023-03-01T11:34:59;14.33;;;9.80;;
6288;SDS011;3177;49.880;8.836;2023-03-01T11:37:32;12.57;;;8.37;;
6288;SDS011;3177;49.880;8.836;2023-03-01T11:40:05;13.93;;;9.00;;
6288;SDS011;3177;49.880;8.836;2023-03-01T11:42:38;13.57;;;9.37;;
6288;SDS011;3177;49.880;8.836;2023-03-01T11:45:08;11.37;;;9.60;;
6288;SDS011;3177;49.880;8.836;2023-03-01T11:47:43;16.00;;;11.93;;
6288;SDS011;3177;49.880;8.836;2023-03-01T11:50:19;13.57;;;9.40;;
6288;SDS011;3177;49.880;8.836;2023-03-01T11:52:52;9.90;;;8.50;;
6288;SDS011;3177;49.880;8.836;2023-03-01T11:55:26;12.77;;;8.40;;
6288;SDS011;3177;49.880;8.836;2023-03-01T11:58:01;14.63;;;9.33;;
6288;SDS011;3177;49.880;8.836;2023-03-01T12:00:37;9.53;;;8.03;;
6288;SDS011;3177;49.880;8.836;2023-03-01T12:03:13;11.60;;;8.13;;
6288;SDS011;3177;49.880;8.836;2023-03-01T12:05:54;10.60;;;8.20;;
6288;SDS011;3177;49.880;8.836;2023-03-01T12:08:29;10.90;;;7.83;;
6288;SDS011;3177;49.880;8.836;2023-03-01T12:11:02;12.03;;;7.43;;
6288;SDS011;3177;49.880;8.836;2023-03-01T12:16:15;12.27;;;9.53;;
6288;SDS011;3177;49.880;8.836;2023-03-01T12:18:59;11.27;;;8.30;;
6288;SDS011;3177;49.880;8.836;2023-03-01T12:21:30;10.03;;;7.30;;
6288;SDS011;3177;49.880;8.836;2023-03-01T12:24:06;11.20;;;7.77;;
6288;SDS011;3177;49.880;8.836;2023-03-01T12:26:39;11.17;;;7.43;;
6288;SDS011;3177;49.880;8.836;2023-03-01T12:29:16;13.23;;;8.70;;
6288;SDS011;3177;49.880;8.836;2023-03-01T12:31:58;11.03;;;7.57;;
6288;SDS011;3177;49.880;8.836;2023-03-01T12:34:31;10.03;;;8.07;;
6288;SDS011;3177;49.880;8.836;2023-03-01T12:37:04;13.23;;;9.27;;
6288;SDS011;3177;49.880;8.836;2023-03-01T12:39:41;8.67;;;6.80;;
6288;SDS011;3177;49.880;8.836;2023-03-01T12:42:14;8.20;;;7.13;;
6288;SDS011;3177;49.880;8.836;2023-03-01T12:44:47;9.47;;;6.87;;
6288;SDS011;3177;49.880;8.836;2023-03-01T12:47:23;8.03;;;7.00;;
6288;SDS011;3177;49.880;8.836;2023-03-01T12:49:54;8.67;;;6.70;;
6288;SDS011;3177;49.880;8.836;2023-03-01T12:52:22;9.57;;;6.47;;
6288;SDS011;3177;49.880;8.836;2023-03-01T12:54:51;9.37;;;6.70;;
6288;SDS011;3177;49.880;8.836;2023-03-01T12:57:20;8.83;;;6.50;;
6288;SDS011;3177;49.880;8.836;2023-03-01T12:59:59;7.57;;;6.33;;
6288;SDS011;3177;49.880;8.836;2023-03-01T13:02:33;11.37;;;6.33;;
6288;SDS011;3177;49.880;8.836;2023-03-01T13:05:06;8.10;;;5.73;;
6288;SDS011;3177;49.880;8.836;2023-03-01T13:07:36;8.37;;;6.53;;
6288;SDS011;3177;49.880;8.836;2023-03-01T13:10:11;10.10;;;6.30;;
6288;SDS011;3177;49.880;8.836;2023-03-01T13:12:50;7.43;;;6.30;;
6288;SDS011;3177;49.880;8.836;2023-03-01T13:15:30;9.57;;;6.93;;
6288;SDS011;3177;49.880;8.836;2023-03-01T13:17:58;8.13;;;6.33;;
6288;SDS011;3177;49.880;8.836;2023-03-01T13:20:27;8.63;;;7.13;;
6288;SDS011;3177;49.880;8.836;2023-03-01T13:23:00;10.37;;;6.17;;
6288;SDS011;3177;49.880;8.836;2023-03-01T13:25:27;8.40;;;6.00;;
6288;SDS011;3177;49.880;8.836;2023-03-01T13:28:35;7.57;;;6.23;;
6288;SDS011;3177;49.880;8.836;2023-03-01T13:30:51;8.13;;;6.43;;
6288;SDS011;3177;49.880;8.836;2023-03-01T13:36:01;8.43;;;5.90;;
6288;SDS011;3177;49.880;8.836;2023-03-01T13:38:38;8.30;;;6.03;;
6288;SDS011;3177;49.880;8.836;2023-03-01T13:41:06;8.90;;;5.30;;
6288;SDS011;3177;49.880;8.836;2023-03-01T13:43:35;6.70;;;5.60;;
6288;SDS011;3177;49.880;8.836;2023-03-01T13:46:07;7.23;;;6.20;;
6288;SDS011;3177;49.880;8.836;2023-03-01T13:48:36;8.07;;;5.50;;
6288;SDS011;3177;49.880;8.836;2023-03-01T13:51:05;7.40;;;5.60;;
6288;SDS011;3177;49.880;8.836;2023-03-01T13:53:33;7.07;;;5.80;;
6288;SDS011;3177;49.880;8.836;2023-03-01T13:56:03;7.43;;;6.10;;
6288;SDS011;3177;49.880;8.836;2023-03-01T13:58:42;6.50;;;5.67;;
6288;SDS011;3177;49.880;8.836;2023-03-01T14:01:20;5.50;;;5.00;;
6288;SDS011;3177;49.880;8.836;2023-03-01T14:03:48;6.43;;;5.40;;
6288;SDS011;3177;49.880;8.836;2023-03-01T14:06:17;7.60;;;5.80;;
6288;SDS011;3177;49.880;8.836;2023-03-01T14:08:47;7.50;;;5.30;;
6288;SDS011;3177;49.880;8.836;2023-03-01T14:14:06;5.60;;;4.93;;
6288;SDS011;3177;49.880;8.836;2023-03-01T14:16:39;6.90;;;5.77;;
6288;SDS011;3177;49.880;8.836;2023-03-01T14:19:14;6.00;;;4.90;;
6288;SDS011;3177;49.880;8.836;2023-03-01T14:21:42;7.37;;;5.70;;
6288;SDS011;3177;49.880;8.836;2023-03-01T14:24:15;6.07;;;5.47;;
6288;SDS011;3177;49.880;8.836;2023-03-01T14:26:43;6.77;;;5.53;;
6288;SDS011;3177;49.880;8.836;2023-03-01T14:29:23;7.70;;;5.17;;
6288;SDS011;3177;49.880;8.836;2023-03-01T14:31:51;7.07;;;5.70;;
6288;SDS011;3177;49.880;8.836;2023-03-01T14:34:19;6.00;;;5.33;;
6288;SDS011;3177;49.880;8.836;2023-03-01T14:36:49;7.63;;;5.63;;
6288;SDS011;3177;49.880;8.836;2023-03-01T14:39:17;6.90;;;5.47;;
6288;SDS011;3177;49.880;8.836;2023-03-01T14:41:44;5.97;;;5.20;;
6288;SDS011;3177;49.880;8.836;2023-03-01T14:44:12;7.93;;;6.27;;
6288;SDS011;3177;49.880;8.836;2023-03-01T14:46:41;9.80;;;6.70;;
6288;SDS011;3177;49.880;8.836;2023-03-01T14:49:12;6.87;;;6.17;;
6288;SDS011;3177;49.880;8.836;2023-03-01T14:51:40;10.00;;;6.97;;
6288;SDS011;3177;49.880;8.836;2023-03-01T14:54:16;8.20;;;6.90;;
6288;SDS011;3177;49.880;8.836;2023-03-01T14:56:46;10.50;;;7.63;;
6288;SDS011;3177;49.880;8.836;2023-03-01T14:59:13;12.53;;;7.17;;
6288;SDS011;3177;49.880;8.836;2023-03-01T15:01:41;8.43;;;6.77;;
6288;SDS011;3177;49.880;8.836;2023-03-01T15:04:12;9.07;;;6.60;;
6288;SDS011;3177;49.880;8.836;2023-03-01T15:06:39;9.23;;;6.57;;
6288;SDS011;3177;49.880;8.836;2023-03-01T15:09:10;11.60;;;7.20;;
6288;SDS011;3177;49.880;8.836;2023-03-01T15:11:38;9.43;;;6.63;;
6288;SDS011;3177;49.880;8.836;2023-03-01T15:16:50;9.13;;;6.87;;
6288;SDS011;3177;49.880;8.836;2023-03-01T15:19:18;9.97;;;7.70;;
6288;SDS011;3177;49.880;8.836;2023-03-01T15:21:46;9.23;;;6.30;;
6288;SDS011;3177;49.880;8.836;2023-03-01T15:24:16;10.13;;;6.97;;
6288;SDS011;3177;49.880;8.836;2023-03-01T15:26:45;9.90;;;6.90;;